createdAt,value
2022-12-08T00:01:06.685Z,9.23
2022-12-08T00:03:33.739Z,9.77
2022-12-08T00:06:21.577Z,8.57
2022-12-08T00:09:07.116Z,9.02
2022-12-08T00:11:34.076Z,9.32
2022-12-08T00:14:01.013Z,9.45
2022-12-08T00:16:27.530Z,8.98
2022-12-08T00:18:54.214Z,8.75
2022-12-08T00:21:20.681Z,9.18
2022-12-08T00:23:47.138Z,9.05
2022-12-08T00:26:13.629Z,9.38
2022-12-08T00:28:40.118Z,9.55
2022-12-08T00:31:11.778Z,9.25
2022-12-08T00:33:38.372Z,9.73
2022-12-08T00:36:09.349Z,7.80
2022-12-08T00:38:36.388Z,9.18
2022-12-08T00:41:04.090Z,9.73
2022-12-08T00:43:30.565Z,9.13
2022-12-08T00:45:57.149Z,9.82
2022-12-08T00:48:23.687Z,8.55
2022-12-08T00:50:50.114Z,8.55
2022-12-08T00:53:16.588Z,8.18
2022-12-08T00:55:43.648Z,10.25
2022-12-08T00:58:10.106Z,9.38
2022-12-08T01:00:36.546Z,9.65
2022-12-08T01:03:03.132Z,9.85
2022-12-08T01:05:29.685Z,9.82
2022-12-08T01:07:56.176Z,9.38
2022-12-08T01:10:22.834Z,10.30
2022-12-08T01:12:49.324Z,11.43
2022-12-08T01:15:15.797Z,10.15
2022-12-08T01:17:42.313Z,9.95
2022-12-08T01:20:09.270Z,9.90
2022-12-08T01:22:38.376Z,10.13
2022-12-08T01:25:05.205Z,10.45
2022-12-08T01:27:31.722Z,10.75
2022-12-08T01:29:58.171Z,11.10
2022-12-08T01:32:24.632Z,10.10
2022-12-08T01:34:51.058Z,10.93
2022-12-08T01:37:17.730Z,11.40
2022-12-08T01:39:44.328Z,10.98
2022-12-08T01:42:23.433Z,10.05
2022-12-08T01:44:55.045Z,11.40
2022-12-08T01:47:24.245Z,11.85
2022-12-08T01:49:51.024Z,11.45
2022-12-08T01:52:37.337Z,11.75
2022-12-08T01:55:39.461Z,11.25
2022-12-08T01:58:13.700Z,10.68
2022-12-08T02:00:40.169Z,11.90
2022-12-08T02:03:13.285Z,12.23
2022-12-08T02:05:40.442Z,11.57
2022-12-08T02:08:10.945Z,11.77
2022-12-08T02:10:41.445Z,11.52
2022-12-08T02:13:12.354Z,11.48
2022-12-08T02:15:42.906Z,10.73
2022-12-08T02:18:57.706Z,11.75
2022-12-08T02:21:55.550Z,11.27
2022-12-08T02:24:39.642Z,10.88
2022-12-08T02:27:27.935Z,10.70
2022-12-08T02:30:13.212Z,10.68
2022-12-08T02:33:05.809Z,10.52
2022-12-08T02:35:39.892Z,10.63
2022-12-08T02:38:32.214Z,10.50
2022-12-08T02:41:35.746Z,9.98
2022-12-08T02:44:33.154Z,10.60
2022-12-08T02:47:06.919Z,10.25
2022-12-08T02:49:35.134Z,10.48
2022-12-08T02:52:05.539Z,10.82
2022-12-08T02:54:33.296Z,10.25
2022-12-08T02:57:32.900Z,10.80
2022-12-08T03:00:09.131Z,10.73
2022-12-08T03:03:25.066Z,10.85
2022-12-08T03:06:09.852Z,10.65
2022-12-08T03:08:46.330Z,10.73
2022-12-08T03:11:22.590Z,9.73
2022-12-08T03:13:52.912Z,10.60
2022-12-08T03:16:24.428Z,10.63
2022-12-08T03:19:06.055Z,9.82
2022-12-08T03:21:35.351Z,10.77
2022-12-08T03:24:06.604Z,10.23
2022-12-08T03:26:46.459Z,10.25
2022-12-08T03:29:13.755Z,10.52
2022-12-08T03:31:48.686Z,10.45
2022-12-08T03:34:16.992Z,10.20
2022-12-08T03:36:44.774Z,10.02
2022-12-08T03:39:11.402Z,10.52
2022-12-08T03:41:37.892Z,10.20
2022-12-08T03:44:04.553Z,10.32
2022-12-08T03:48:57.370Z,10.35
2022-12-08T03:51:24.637Z,10.90
2022-12-08T03:53:51.393Z,10.40
2022-12-08T03:56:28.589Z,10.00
2022-12-08T03:58:55.824Z,10.48
2022-12-08T04:01:23.183Z,10.77
2022-12-08T04:03:49.895Z,10.10
2022-12-08T04:06:17.044Z,10.10
2022-12-08T04:08:43.893Z,9.85
2022-12-08T04:11:11.485Z,9.88
2022-12-08T04:13:39.534Z,9.23
2022-12-08T04:16:07.303Z,9.73
2022-12-08T04:18:35.198Z,9.88
2022-12-08T04:21:01.984Z,10.95
2022-12-08T04:23:28.493Z,9.30
2022-12-08T04:25:54.942Z,9.88
2022-12-08T04:28:21.845Z,10.18
2022-12-08T04:30:49.278Z,10.57
2022-12-08T04:33:16.249Z,10.40
2022-12-08T04:35:42.957Z,10.43
2022-12-08T04:38:09.438Z,10.05
2022-12-08T04:40:35.874Z,10.57
2022-12-08T04:43:02.347Z,10.20
2022-12-08T04:45:28.815Z,10.43
2022-12-08T04:47:55.540Z,10.65
2022-12-08T04:50:22.201Z,10.52
2022-12-08T04:52:48.700Z,10.77
2022-12-08T04:55:15.213Z,9.82
2022-12-08T04:57:41.664Z,10.55
2022-12-08T05:00:08.795Z,10.15
2022-12-08T05:02:35.512Z,10.45
2022-12-08T05:05:02.067Z,9.27
2022-12-08T05:07:28.519Z,10.18
2022-12-08T05:09:55.048Z,9.43
2022-12-08T05:12:21.675Z,9.82
2022-12-08T05:14:48.436Z,10.05
2022-12-08T05:17:15.929Z,10.60
2022-12-08T05:19:42.622Z,8.75
2022-12-08T05:22:09.325Z,9.55
2022-12-08T05:24:35.856Z,9.70
2022-12-08T05:27:02.530Z,9.43
2022-12-08T05:29:28.946Z,9.02
2022-12-08T05:31:55.581Z,9.45
2022-12-08T05:34:22.162Z,9.10
2022-12-08T05:36:48.643Z,9.60
2022-12-08T05:39:15.889Z,9.65
2022-12-08T05:41:42.380Z,8.90
2022-12-08T05:44:09.107Z,9.48
2022-12-08T05:46:36.460Z,9.27
2022-12-08T05:49:04.171Z,9.30
2022-12-08T05:51:30.785Z,10.30
2022-12-08T05:53:57.999Z,10.60
2022-12-08T05:56:24.741Z,10.00
2022-12-08T05:58:51.283Z,9.35
2022-12-08T06:01:22.781Z,10.00
2022-12-08T06:03:49.312Z,9.20
2022-12-08T06:06:15.933Z,9.30
2022-12-08T06:08:42.388Z,8.75
2022-12-08T06:11:09.447Z,8.70
2022-12-08T06:13:36.029Z,8.43
2022-12-08T06:16:06.893Z,9.20
2022-12-08T06:18:33.445Z,7.18
2022-12-08T06:21:08.115Z,7.93
2022-12-08T06:23:35.206Z,7.32
2022-12-08T06:26:07.777Z,8.10
2022-12-08T06:28:35.546Z,7.55
2022-12-08T06:31:09.820Z,7.93
2022-12-08T06:33:36.861Z,8.20
2022-12-08T06:36:04.650Z,7.43
2022-12-08T06:38:31.145Z,8.10
2022-12-08T06:40:59.304Z,9.70
2022-12-08T06:43:26.467Z,8.45
2022-12-08T06:45:53.444Z,8.27
2022-12-08T06:48:20.165Z,9.38
2022-12-08T06:50:46.669Z,9.73
2022-12-08T06:53:14.882Z,10.13
2022-12-08T06:56:00.233Z,10.82
2022-12-08T06:58:26.803Z,9.55
2022-12-08T07:00:53.723Z,11.20
2022-12-08T07:03:20.587Z,10.38
2022-12-08T07:05:47.265Z,10.48
2022-12-08T07:08:13.938Z,10.80
2022-12-08T07:10:40.661Z,10.88
2022-12-08T07:13:07.198Z,11.27
2022-12-08T07:15:33.664Z,11.38
2022-12-08T07:18:00.618Z,14.07
2022-12-08T07:20:27.639Z,12.68
2022-12-08T07:22:54.651Z,12.05
2022-12-08T07:25:21.187Z,11.32
2022-12-08T07:27:48.095Z,11.38
2022-12-08T07:30:15.101Z,11.85
2022-12-08T07:32:41.612Z,10.85
2022-12-08T07:35:10.804Z,12.40
2022-12-08T07:37:38.232Z,11.38
2022-12-08T07:40:07.095Z,11.52
2022-12-08T07:42:34.122Z,12.13
2022-12-08T07:45:00.851Z,11.35
2022-12-08T07:47:27.375Z,12.32
2022-12-08T07:49:53.900Z,12.27
2022-12-08T07:52:20.425Z,12.05
2022-12-08T07:54:47.380Z,12.57
2022-12-08T07:57:13.979Z,11.52
2022-12-08T07:59:40.489Z,11.90
2022-12-08T08:02:24.268Z,10.85
2022-12-08T08:04:51.839Z,12.00
2022-12-08T08:07:18.313Z,12.27
2022-12-08T08:09:45.725Z,10.57
2022-12-08T08:12:30.745Z,11.50
2022-12-08T08:14:58.347Z,10.70
2022-12-08T08:17:24.976Z,10.90
2022-12-08T08:19:51.558Z,10.55
2022-12-08T08:22:18.000Z,10.68
2022-12-08T08:24:45.352Z,10.13
2022-12-08T08:27:12.545Z,9.60
2022-12-08T08:29:39.017Z,10.63
2022-12-08T08:32:05.881Z,9.77
2022-12-08T08:34:32.418Z,10.70
2022-12-08T08:36:58.929Z,10.40
2022-12-08T08:39:26.508Z,10.95
2022-12-08T08:41:53.030Z,11.73
2022-12-08T08:44:19.526Z,11.02
2022-12-08T08:46:46.049Z,10.18
2022-12-08T08:49:12.842Z,11.18
2022-12-08T08:51:39.389Z,11.05
2022-12-08T08:54:05.863Z,11.13
2022-12-08T08:56:32.706Z,11.25
2022-12-08T08:58:59.237Z,11.68
2022-12-08T09:01:28.159Z,12.65
2022-12-08T09:03:57.564Z,11.10
2022-12-08T09:06:25.349Z,11.90
2022-12-08T09:08:52.103Z,11.50
2022-12-08T09:11:18.744Z,12.30
2022-12-08T09:13:48.345Z,10.82
2022-12-08T09:16:15.497Z,11.43
2022-12-08T09:18:42.108Z,12.52
2022-12-08T09:21:13.179Z,12.25
2022-12-08T09:23:40.017Z,13.25
2022-12-08T09:26:06.971Z,12.25
2022-12-08T09:28:33.712Z,12.55
2022-12-08T09:31:00.870Z,12.90
2022-12-08T09:33:27.655Z,12.98
2022-12-08T09:35:54.165Z,12.63
2022-12-08T09:38:20.619Z,13.65
2022-12-08T09:40:53.100Z,14.15
2022-12-08T09:43:38.569Z,10.60
2022-12-08T09:46:09.459Z,13.65
2022-12-08T09:48:41.510Z,14.40
2022-12-08T09:51:09.294Z,14.15
2022-12-08T09:53:56.325Z,15.15
2022-12-08T09:56:26.448Z,13.85
2022-12-08T09:58:55.375Z,14.50
2022-12-08T10:01:23.907Z,14.35
2022-12-08T10:03:50.652Z,13.63
2022-12-08T10:06:41.276Z,14.00
2022-12-08T10:09:22.687Z,12.75
2022-12-08T10:11:57.527Z,12.35
2022-12-08T10:15:02.348Z,12.90
2022-12-08T10:17:34.603Z,12.55
2022-12-08T10:20:21.407Z,12.88
2022-12-08T10:22:58.484Z,11.98
2022-12-08T10:25:33.176Z,12.10
2022-12-08T10:27:59.614Z,12.18
2022-12-08T10:30:26.255Z,11.77
2022-12-08T10:32:54.626Z,11.68
2022-12-08T10:35:22.870Z,13.43
2022-12-08T10:38:03.985Z,11.93
2022-12-08T10:40:42.120Z,12.55
2022-12-08T10:43:22.003Z,12.15
2022-12-08T10:45:48.991Z,12.10
2022-12-08T10:48:22.628Z,13.05
2022-12-08T10:50:59.901Z,12.38
2022-12-08T10:53:33.763Z,12.18
2022-12-08T10:56:03.071Z,12.88
2022-12-08T10:58:48.437Z,11.40
2022-12-08T11:01:18.533Z,11.73
2022-12-08T11:03:47.736Z,12.88
2022-12-08T11:06:19.977Z,11.50
2022-12-08T11:08:54.143Z,11.20
2022-12-08T11:11:27.683Z,11.57
2022-12-08T11:13:55.947Z,12.05
2022-12-08T11:16:23.518Z,12.05
2022-12-08T11:18:57.098Z,11.77
2022-12-08T11:26:30.126Z,10.68
2022-12-08T11:28:57.152Z,10.63
2022-12-08T11:31:41.253Z,13.15
2022-12-08T11:34:15.586Z,12.43
2022-12-08T11:36:42.173Z,12.18
2022-12-08T11:39:12.492Z,11.90
2022-12-08T11:41:44.190Z,12.07
2022-12-08T11:45:12.096Z,11.95
2022-12-08T11:47:52.612Z,12.10
2022-12-08T11:50:28.373Z,13.88
2022-12-08T11:52:56.995Z,13.52
2022-12-08T11:55:40.704Z,12.60
2022-12-08T11:58:12.070Z,12.15
2022-12-08T12:00:38.492Z,11.30
2022-12-08T12:03:19.038Z,12.50
2022-12-08T12:09:34.155Z,11.55
2022-12-08T12:12:40.042Z,11.20
2022-12-08T12:15:44.918Z,11.40
2022-12-08T12:18:31.556Z,11.75
2022-12-08T12:21:22.728Z,12.68
2022-12-08T12:23:56.848Z,12.18
2022-12-08T12:26:29.527Z,11.77
2022-12-08T12:29:06.616Z,13.05
2022-12-08T12:31:41.578Z,11.88
2022-12-08T12:34:22.527Z,13.13
2022-12-08T12:36:50.789Z,13.30
2022-12-08T12:39:21.634Z,13.32
2022-12-08T12:41:57.478Z,13.00
2022-12-08T12:44:45.859Z,13.55
2022-12-08T12:47:14.721Z,13.43
2022-12-08T12:49:43.567Z,15.15
2022-12-08T12:52:09.937Z,14.07
2022-12-08T12:54:36.457Z,13.80
2022-12-08T12:57:08.970Z,14.45
2022-12-08T12:59:55.294Z,13.98
2022-12-08T13:02:25.107Z,14.52
2022-12-08T13:05:00.656Z,14.32
2022-12-08T13:07:34.251Z,15.38
2022-12-08T13:10:18.062Z,15.80
2022-12-08T13:15:20.302Z,14.55
2022-12-08T13:17:49.033Z,15.43
2022-12-08T13:20:24.433Z,14.95
2022-12-08T13:22:53.624Z,17.02
2022-12-08T13:25:38.877Z,15.15
2022-12-08T13:28:27.381Z,15.43
2022-12-08T13:31:03.890Z,15.90
2022-12-08T13:33:31.767Z,17.27
2022-12-08T13:36:07.047Z,17.58
2022-12-08T13:38:36.773Z,17.85
2022-12-08T13:41:08.040Z,18.65
2022-12-08T13:44:10.209Z,18.95
2022-12-08T13:47:25.106Z,19.23
2022-12-08T13:56:59.412Z,19.52
2022-12-08T13:58:36.340Z,19.05
2022-12-08T14:01:02.843Z,19.77
2022-12-08T14:03:29.548Z,18.83
2022-12-08T14:06:12.322Z,21.02
2022-12-08T14:11:50.213Z,20.95
2022-12-08T14:14:46.035Z,18.73
2022-12-08T14:17:15.173Z,19.20
2022-12-08T14:19:53.687Z,18.27
2022-12-08T14:22:20.115Z,17.80
2022-12-08T14:24:51.225Z,18.95
2022-12-08T14:27:21.459Z,19.67
2022-12-08T14:30:00.111Z,19.85
2022-12-08T14:32:44.473Z,20.60
2022-12-08T14:35:10.875Z,20.33
2022-12-08T14:37:49.986Z,19.63
2022-12-08T14:40:36.174Z,18.55
2022-12-08T14:43:13.560Z,18.80
2022-12-08T14:45:43.780Z,20.15
2022-12-08T14:48:39.191Z,19.90
2022-12-08T14:51:14.548Z,19.83
2022-12-08T14:53:44.969Z,20.15
2022-12-08T14:56:20.569Z,19.27
2022-12-08T14:58:49.900Z,20.23
2022-12-08T15:01:23.368Z,19.35
2022-12-08T15:06:21.001Z,18.90
2022-12-08T15:08:58.816Z,20.02
2022-12-08T15:11:34.600Z,19.92
2022-12-08T15:14:01.753Z,20.13
2022-12-08T15:16:30.429Z,20.83
2022-12-08T15:19:16.881Z,19.88
2022-12-08T15:21:44.795Z,19.65
2022-12-08T15:24:13.258Z,19.20
2022-12-08T15:26:43.971Z,18.13
2022-12-08T15:29:13.646Z,19.65
2022-12-08T15:31:40.218Z,19.42
2022-12-08T15:34:06.794Z,18.88
2022-12-08T15:36:33.298Z,21.90
2022-12-08T15:38:59.936Z,20.92
2022-12-08T15:41:26.412Z,21.50
2022-12-08T15:43:52.882Z,19.30
2022-12-08T15:46:19.328Z,18.40
2022-12-08T15:48:45.842Z,20.20
2022-12-08T15:51:12.261Z,19.08
2022-12-08T15:53:38.737Z,18.67
2022-12-08T15:58:55.622Z,20.48
2022-12-08T16:01:23.365Z,20.30
2022-12-08T16:09:39.035Z,19.75
2022-12-08T16:13:54.806Z,19.52
2022-12-08T16:16:01.125Z,19.70
2022-12-08T16:18:37.149Z,19.33
2022-12-08T16:21:12.382Z,18.63
2022-12-08T16:23:44.955Z,20.25
2022-12-08T16:26:28.396Z,21.52
2022-12-08T16:29:02.171Z,23.38
2022-12-08T16:31:28.965Z,25.33
2022-12-08T16:33:55.601Z,26.42
2022-12-08T16:36:22.027Z,25.25
2022-12-08T16:38:48.480Z,22.25
2022-12-08T16:41:35.230Z,22.02
2022-12-08T16:44:03.382Z,22.05
2022-12-08T16:46:29.926Z,22.88
2022-12-08T16:48:58.829Z,22.00
2022-12-08T16:51:27.372Z,23.30
2022-12-08T16:53:55.130Z,24.30
2022-12-08T16:56:26.244Z,23.70
2022-12-08T16:58:56.996Z,22.40
2022-12-08T17:01:24.813Z,22.45
2022-12-08T17:04:07.470Z,23.55
2022-12-08T17:06:37.864Z,22.58
2022-12-08T17:09:04.505Z,23.92
2022-12-08T17:11:36.186Z,22.27
2022-12-08T17:14:04.102Z,22.58
2022-12-08T17:16:30.585Z,23.25
2022-12-08T17:18:58.245Z,23.27
2022-12-08T17:21:24.753Z,23.17
2022-12-08T17:23:51.241Z,23.15
2022-12-08T17:26:17.780Z,21.83
2022-12-08T17:29:00.078Z,22.05
2022-12-08T17:31:29.976Z,22.30
2022-12-08T17:34:02.248Z,22.40
2022-12-08T17:36:29.018Z,24.45
2022-12-08T17:38:56.746Z,21.92
2022-12-08T17:41:23.216Z,22.42
2022-12-08T17:43:49.699Z,22.17
2022-12-08T17:46:20.618Z,22.08
2022-12-08T17:48:47.467Z,22.35
2022-12-08T17:51:15.129Z,23.58
2022-12-08T17:53:41.719Z,21.63
2022-12-08T17:56:21.154Z,21.63
2022-12-08T17:58:52.847Z,22.35
2022-12-08T18:03:48.196Z,21.98
2022-12-08T18:06:14.738Z,21.60
2022-12-08T18:08:41.151Z,21.02
2022-12-08T18:11:16.599Z,19.45
2022-12-08T18:13:43.351Z,20.13
2022-12-08T18:16:10.289Z,20.05
2022-12-08T18:18:36.807Z,21.15
2022-12-08T18:21:04.056Z,21.92
2022-12-08T18:23:30.564Z,18.58
2022-12-08T18:25:57.084Z,20.17
2022-12-08T18:28:24.067Z,19.27
2022-12-08T18:30:50.778Z,19.20
2022-12-08T18:33:17.371Z,20.95
2022-12-08T18:35:43.849Z,19.35
2022-12-08T18:38:10.289Z,19.42
2022-12-08T18:40:36.819Z,18.83
2022-12-08T18:43:03.439Z,19.25
2022-12-08T18:45:29.892Z,18.10
2022-12-08T18:47:56.451Z,20.88
2022-12-08T18:50:23.021Z,19.10
2022-12-08T18:52:49.770Z,18.67
2022-12-08T18:55:16.255Z,20.35
2022-12-08T18:57:43.222Z,18.88
2022-12-08T19:00:13.456Z,17.33
2022-12-08T19:02:40.627Z,17.65
2022-12-08T19:05:09.291Z,18.60
2022-12-08T19:07:35.967Z,19.05
2022-12-08T19:10:02.830Z,19.08
2022-12-08T19:12:29.365Z,18.05
2022-12-08T19:14:56.615Z,17.58
2022-12-08T19:17:23.430Z,19.88
2022-12-08T19:19:49.941Z,18.10
2022-12-08T19:22:16.413Z,18.17
2022-12-08T19:24:42.946Z,17.92
2022-12-08T19:27:09.755Z,16.60
2022-12-08T19:29:36.366Z,18.33
2022-12-08T19:32:05.094Z,17.48
2022-12-08T19:34:31.648Z,17.13
2022-12-08T19:36:58.131Z,20.30
2022-12-08T19:39:43.045Z,18.65
2022-12-08T19:42:33.197Z,18.20
2022-12-08T19:45:07.521Z,19.40
2022-12-08T19:47:34.233Z,17.92
2022-12-08T19:50:19.453Z,20.00
2022-12-08T19:52:46.019Z,20.10
2022-12-08T19:55:13.373Z,19.52
2022-12-08T19:57:40.223Z,21.95
2022-12-08T20:00:08.969Z,21.60
2022-12-08T20:02:36.572Z,21.55
2022-12-08T20:05:05.585Z,21.90
2022-12-08T20:07:32.063Z,23.40
2022-12-08T20:09:58.557Z,22.42
2022-12-08T20:12:25.141Z,23.20
2022-12-08T20:14:52.703Z,22.75
2022-12-08T20:17:19.423Z,21.88
2022-12-08T20:19:46.109Z,23.10
2022-12-08T20:22:12.551Z,24.67
2022-12-08T20:24:39.063Z,23.55
2022-12-08T20:27:05.523Z,23.40
2022-12-08T20:29:32.140Z,21.98
2022-12-08T20:31:58.821Z,21.23
2022-12-08T20:34:25.540Z,22.70
2022-12-08T20:36:52.014Z,21.70
2022-12-08T20:39:18.736Z,21.02
2022-12-08T20:41:46.213Z,20.05
2022-12-08T20:44:12.735Z,20.55
2022-12-08T20:46:39.674Z,18.92
2022-12-08T20:49:07.706Z,19.65
2022-12-08T20:51:34.676Z,18.25
2022-12-08T20:54:01.534Z,17.00
2022-12-08T20:56:28.540Z,27.58
2022-12-08T20:58:56.019Z,19.52
2022-12-08T21:01:24.335Z,18.30
2022-12-08T21:03:51.642Z,16.23
2022-12-08T21:06:23.342Z,18.67
2022-12-08T21:08:50.754Z,19.50
2022-12-08T21:11:17.567Z,16.73
2022-12-08T21:13:44.601Z,18.30
2022-12-08T21:16:13.785Z,20.50
2022-12-08T21:18:41.589Z,18.48
2022-12-08T21:21:11.615Z,18.42
2022-12-08T21:23:38.407Z,18.00
2022-12-08T21:26:18.702Z,18.45
2022-12-08T21:28:45.620Z,19.73
2022-12-08T21:31:15.082Z,19.20
2022-12-08T21:33:42.168Z,21.45
2022-12-08T21:36:12.847Z,20.55
2022-12-08T21:38:40.848Z,19.92
2022-12-08T21:41:10.665Z,19.50
2022-12-08T21:43:37.284Z,20.52
2022-12-08T21:46:04.371Z,19.55
2022-12-08T21:48:30.878Z,21.23
2022-12-08T21:51:04.719Z,19.83
2022-12-08T21:53:31.395Z,18.83
2022-12-08T21:55:57.839Z,18.45
2022-12-08T21:58:24.464Z,20.45
2022-12-08T22:00:51.095Z,19.58
2022-12-08T22:03:17.889Z,20.17
2022-12-08T22:05:44.463Z,19.10
2022-12-08T22:08:11.129Z,18.17
2022-12-08T22:10:38.382Z,16.95
2022-12-08T22:13:04.970Z,18.65
2022-12-08T22:15:32.724Z,18.55
2022-12-08T22:17:59.334Z,17.35
2022-12-08T22:20:26.011Z,16.90
2022-12-08T22:22:52.699Z,15.68
2022-12-08T22:25:19.307Z,16.63
2022-12-08T22:27:46.012Z,15.48
2022-12-08T22:30:12.929Z,17.13
2022-12-08T22:32:40.128Z,18.20
2022-12-08T22:35:06.943Z,17.48
2022-12-08T22:37:33.700Z,19.35
2022-12-08T22:40:00.259Z,17.30
2022-12-08T22:42:27.669Z,16.33
2022-12-08T22:44:54.159Z,17.35
2022-12-08T22:47:20.727Z,15.73
2022-12-08T22:49:47.360Z,17.65
2022-12-08T22:52:14.082Z,17.52
2022-12-08T22:54:40.604Z,17.05
2022-12-08T22:57:07.035Z,17.55
2022-12-08T22:59:34.641Z,16.10
2022-12-08T23:02:01.234Z,17.63
2022-12-08T23:04:27.851Z,18.25
2022-12-08T23:06:54.720Z,16.65
2022-12-08T23:09:21.658Z,15.93
2022-12-08T23:11:48.453Z,16.58
2022-12-08T23:14:15.621Z,16.30
2022-12-08T23:16:42.175Z,17.83
2022-12-08T23:19:08.731Z,16.55
2022-12-08T23:21:35.188Z,16.30
2022-12-08T23:24:02.104Z,17.40
2022-12-08T23:26:31.663Z,15.95
2022-12-08T23:28:59.090Z,15.13
2022-12-08T23:31:26.738Z,13.52
2022-12-08T23:33:54.679Z,15.30
2022-12-08T23:36:22.609Z,14.45
2022-12-08T23:38:49.229Z,14.00
2022-12-08T23:41:16.161Z,12.40
2022-12-08T23:43:47.512Z,12.63
2022-12-08T23:46:15.747Z,13.07
2022-12-08T23:48:42.395Z,12.18
2022-12-08T23:51:09.430Z,12.65
2022-12-08T23:53:36.139Z,12.82
2022-12-08T23:56:05.874Z,13.70
2022-12-08T23:58:33.361Z,12.88
